createdAt,value
2023-01-18T00:01:03.388Z,8.55
2023-01-18T00:03:33.508Z,8.27
2023-01-18T00:06:03.379Z,7.97
2023-01-18T00:08:35.688Z,7.90
2023-01-18T00:11:05.233Z,7.38
2023-01-18T00:13:34.292Z,7.65
2023-01-18T00:16:06.604Z,7.38
2023-01-18T00:18:36.282Z,8.00
2023-01-18T00:21:06.002Z,7.28
2023-01-18T00:23:39.094Z,7.95
2023-01-18T00:26:08.868Z,8.32
2023-01-18T00:28:39.628Z,7.00
2023-01-18T00:31:13.452Z,7.72
2023-01-18T00:33:44.226Z,7.32
2023-01-18T00:36:13.382Z,6.55
2023-01-18T00:38:43.235Z,6.30
2023-01-18T00:41:12.213Z,7.10
2023-01-18T00:43:39.888Z,6.38
2023-01-18T00:46:09.529Z,7.30
2023-01-18T00:48:39.803Z,7.43
2023-01-18T00:51:09.535Z,6.88
2023-01-18T00:53:38.185Z,7.07
2023-01-18T00:56:10.280Z,7.03
2023-01-18T00:58:38.870Z,6.60
2023-01-18T01:01:08.563Z,6.70
2023-01-18T01:03:53.797Z,6.35
2023-01-18T01:06:45.402Z,6.82
2023-01-18T01:09:15.842Z,6.68
2023-01-18T01:12:06.414Z,6.38
2023-01-18T01:14:53.257Z,7.28
2023-01-18T01:17:38.672Z,6.20
2023-01-18T01:20:26.355Z,7.25
2023-01-18T01:23:13.638Z,7.30
2023-01-18T01:25:59.724Z,7.28
2023-01-18T01:28:30.684Z,6.45
2023-01-18T01:31:00.506Z,6.82
2023-01-18T01:33:28.996Z,7.15
2023-01-18T01:35:58.023Z,6.57
2023-01-18T01:38:29.588Z,7.03
2023-01-18T01:41:00.492Z,6.70
2023-01-18T01:43:44.783Z,7.15
2023-01-18T01:46:39.496Z,6.47
2023-01-18T01:49:14.960Z,6.85
2023-01-18T01:51:45.190Z,6.88
2023-01-18T01:54:18.497Z,6.65
2023-01-18T01:56:49.566Z,6.75
2023-01-18T01:59:21.714Z,7.50
2023-01-18T02:01:53.389Z,7.38
2023-01-18T02:04:24.825Z,6.55
2023-01-18T02:06:52.913Z,6.72
2023-01-18T02:09:23.273Z,6.30
2023-01-18T02:11:56.192Z,6.43
2023-01-18T02:14:30.078Z,6.55
2023-01-18T02:17:15.671Z,6.72
2023-01-18T02:20:09.924Z,6.28
2023-01-18T02:22:59.372Z,6.53
2023-01-18T02:25:54.831Z,6.68
2023-01-18T02:28:31.195Z,5.90
2023-01-18T02:31:12.378Z,5.90
2023-01-18T02:33:48.593Z,6.32
2023-01-18T02:36:26.742Z,5.95
2023-01-18T02:38:58.626Z,6.43
2023-01-18T02:41:47.623Z,5.88
2023-01-18T02:44:38.397Z,6.00
2023-01-18T02:47:10.109Z,6.55
2023-01-18T02:49:39.619Z,5.90
2023-01-18T02:52:09.598Z,6.28
2023-01-18T02:54:41.365Z,5.85
2023-01-18T02:57:15.856Z,6.13
2023-01-18T02:59:50.455Z,5.35
2023-01-18T03:02:21.877Z,5.50
2023-01-18T03:04:55.189Z,6.20
2023-01-18T03:07:29.032Z,4.47
2023-01-18T03:09:59.793Z,5.80
2023-01-18T03:12:46.193Z,4.95
2023-01-18T03:15:24.596Z,4.60
2023-01-18T03:17:55.016Z,4.68
2023-01-18T03:20:26.926Z,4.78
2023-01-18T03:23:15.401Z,4.40
2023-01-18T03:25:45.834Z,3.95
2023-01-18T03:28:35.739Z,4.15
2023-01-18T03:31:27.222Z,3.97
2023-01-18T03:33:59.326Z,4.15
2023-01-18T03:36:35.132Z,4.82
2023-01-18T03:39:07.667Z,3.95
2023-01-18T03:41:40.363Z,4.10
2023-01-18T03:44:16.413Z,3.90
2023-01-18T03:46:46.525Z,4.20
2023-01-18T03:49:16.443Z,4.00
2023-01-18T03:51:56.985Z,4.28
2023-01-18T03:54:34.036Z,3.58
2023-01-18T03:57:05.859Z,3.97
2023-01-18T03:59:39.964Z,4.03
2023-01-18T04:02:11.516Z,4.25
2023-01-18T04:04:42.841Z,4.00
2023-01-18T04:07:11.870Z,3.90
2023-01-18T04:09:40.471Z,3.10
2023-01-18T04:12:08.986Z,3.33
2023-01-18T04:14:37.198Z,4.07
2023-01-18T04:17:08.319Z,3.95
2023-01-18T04:19:40.549Z,3.60
2023-01-18T04:22:09.939Z,3.83
2023-01-18T04:24:38.326Z,3.80
2023-01-18T04:27:07.272Z,3.92
2023-01-18T04:29:35.556Z,3.47
2023-01-18T04:32:04.200Z,3.25
2023-01-18T04:34:32.781Z,3.53
2023-01-18T04:37:02.408Z,3.40
2023-01-18T04:39:30.918Z,3.20
2023-01-18T04:41:59.998Z,3.90
2023-01-18T04:44:28.357Z,3.13
2023-01-18T04:46:58.807Z,3.97
2023-01-18T04:49:28.053Z,3.75
2023-01-18T04:51:56.289Z,3.88
2023-01-18T04:54:26.340Z,3.90
2023-01-18T04:56:54.930Z,3.70
2023-01-18T04:59:23.672Z,3.33
2023-01-18T05:01:52.440Z,4.25
2023-01-18T05:04:22.921Z,3.95
2023-01-18T05:06:52.430Z,4.43
2023-01-18T05:09:22.737Z,4.05
2023-01-18T05:11:54.591Z,4.18
2023-01-18T05:14:25.247Z,4.07
2023-01-18T05:16:54.434Z,4.82
2023-01-18T05:19:24.546Z,4.70
2023-01-18T05:21:53.219Z,4.10
2023-01-18T05:24:21.487Z,4.70
2023-01-18T05:26:50.042Z,4.70
2023-01-18T05:29:23.039Z,4.93
2023-01-18T05:34:19.436Z,4.78
2023-01-18T05:36:48.295Z,4.75
2023-01-18T05:39:17.653Z,4.70
2023-01-18T05:41:48.771Z,5.00
2023-01-18T05:44:17.452Z,5.55
2023-01-18T05:46:51.363Z,5.90
2023-01-18T05:49:22.177Z,6.85
2023-01-18T05:51:50.535Z,5.95
2023-01-18T05:54:19.978Z,5.75
2023-01-18T05:56:48.817Z,5.88
2023-01-18T05:59:22.221Z,5.93
2023-01-18T06:01:51.715Z,6.25
2023-01-18T06:04:20.128Z,6.45
2023-01-18T06:06:49.123Z,6.45
2023-01-18T06:09:18.496Z,6.53
2023-01-18T06:11:47.968Z,5.72
2023-01-18T06:14:16.393Z,6.05
2023-01-18T06:16:45.162Z,6.43
2023-01-18T06:19:15.776Z,6.63
2023-01-18T06:21:44.166Z,6.30
2023-01-18T06:24:13.789Z,6.57
2023-01-18T06:26:42.263Z,5.82
2023-01-18T06:29:10.686Z,6.22
2023-01-18T06:31:39.522Z,5.50
2023-01-18T06:34:09.329Z,6.07
2023-01-18T06:36:46.117Z,5.35
2023-01-18T06:39:17.725Z,5.57
2023-01-18T06:41:47.563Z,4.32
2023-01-18T06:44:16.099Z,5.28
2023-01-18T06:46:45.013Z,5.00
2023-01-18T06:49:13.701Z,4.82
2023-01-18T06:51:50.495Z,4.10
2023-01-18T06:54:20.489Z,4.00
2023-01-18T06:56:48.777Z,4.18
2023-01-18T06:59:18.878Z,3.80
2023-01-18T07:01:49.108Z,4.28
2023-01-18T07:04:19.916Z,8.77
2023-01-18T07:06:49.910Z,3.97
2023-01-18T07:09:18.817Z,4.95
2023-01-18T07:11:47.054Z,5.32
2023-01-18T07:14:16.085Z,4.45
2023-01-18T07:16:48.323Z,5.15
2023-01-18T07:19:16.605Z,6.18
2023-01-18T07:21:47.219Z,5.90
2023-01-18T07:24:18.201Z,5.53
2023-01-18T07:26:46.246Z,5.53
2023-01-18T07:29:14.721Z,5.18
2023-01-18T07:31:42.981Z,5.82
2023-01-18T07:34:11.655Z,5.68
2023-01-18T07:36:42.066Z,6.65
2023-01-18T07:39:11.223Z,5.45
2023-01-18T07:41:42.177Z,5.22
2023-01-18T07:44:11.867Z,4.60
2023-01-18T07:46:42.708Z,4.30
2023-01-18T07:49:16.445Z,4.45
2023-01-18T07:51:44.463Z,3.88
2023-01-18T07:54:15.402Z,5.03
2023-01-18T07:56:48.094Z,6.45
2023-01-18T07:59:17.197Z,6.03
2023-01-18T08:01:47.380Z,6.78
2023-01-18T08:04:15.577Z,6.45
2023-01-18T08:06:43.753Z,7.15
2023-01-18T08:09:11.708Z,6.68
2023-01-18T08:11:39.804Z,5.40
2023-01-18T08:14:09.545Z,4.88
2023-01-18T08:16:38.916Z,4.47
2023-01-18T08:19:07.181Z,4.60
2023-01-18T08:21:35.370Z,5.07
2023-01-18T08:24:05.108Z,4.65
2023-01-18T08:26:34.490Z,5.70
2023-01-18T08:29:02.701Z,5.13
2023-01-18T08:31:32.325Z,4.97
2023-01-18T08:34:01.651Z,7.18
2023-01-18T08:36:29.842Z,5.57
2023-01-18T08:38:58.307Z,5.68
2023-01-18T08:41:30.723Z,5.28
2023-01-18T08:44:00.220Z,4.35
2023-01-18T08:46:28.485Z,4.25
2023-01-18T08:48:59.332Z,3.72
2023-01-18T08:51:29.477Z,3.50
2023-01-18T08:53:59.198Z,3.78
2023-01-18T08:56:28.243Z,3.20
2023-01-18T08:58:56.298Z,3.45
2023-01-18T09:01:24.508Z,3.85
2023-01-18T09:03:56.610Z,4.20
2023-01-18T09:06:30.012Z,5.07
2023-01-18T09:08:58.341Z,4.57
2023-01-18T09:11:26.900Z,4.28
2023-01-18T09:14:01.538Z,7.78
2023-01-18T09:16:31.223Z,6.07
2023-01-18T09:19:00.195Z,7.35
2023-01-18T09:21:29.740Z,5.97
2023-01-18T09:23:59.553Z,5.00
2023-01-18T09:26:28.327Z,9.85
2023-01-18T09:28:56.343Z,8.75
2023-01-18T09:31:27.385Z,5.00
2023-01-18T09:34:12.994Z,3.13
2023-01-18T09:36:47.409Z,2.95
2023-01-18T09:39:18.098Z,2.97
2023-01-18T09:41:52.420Z,2.90
2023-01-18T09:44:26.127Z,2.88
2023-01-18T09:47:00.668Z,3.35
2023-01-18T09:49:37.258Z,3.50
2023-01-18T09:52:33.113Z,3.35
2023-01-18T09:55:10.131Z,3.58
2023-01-18T09:57:51.752Z,3.10
2023-01-18T10:00:24.113Z,3.13
2023-01-18T10:02:56.060Z,4.25
2023-01-18T10:08:04.931Z,4.03
2023-01-18T10:10:38.253Z,4.28
2023-01-18T10:13:28.953Z,2.90
2023-01-18T10:15:57.056Z,2.90
2023-01-18T10:18:26.133Z,3.45
2023-01-18T10:21:00.179Z,3.08
2023-01-18T10:23:34.753Z,2.85
2023-01-18T10:26:07.632Z,3.15
2023-01-18T10:28:49.933Z,3.45
2023-01-18T10:31:31.369Z,2.33
2023-01-18T10:34:02.691Z,3.13
2023-01-18T10:36:35.311Z,4.25
2023-01-18T10:39:09.474Z,3.65
2023-01-18T10:41:41.141Z,3.58
2023-01-18T10:44:09.943Z,3.40
2023-01-18T10:46:38.855Z,3.45
2023-01-18T10:49:09.128Z,3.10
2023-01-18T10:51:40.190Z,3.17
2023-01-18T10:54:28.791Z,2.40
2023-01-18T10:57:05.170Z,2.90
2023-01-18T10:59:38.354Z,2.20
2023-01-18T11:02:07.067Z,2.90
2023-01-18T11:04:35.975Z,2.63
2023-01-18T11:07:06.687Z,2.30
2023-01-18T11:09:44.361Z,2.70
2023-01-18T11:12:41.471Z,2.88
2023-01-18T11:15:31.769Z,2.70
2023-01-18T11:18:13.320Z,2.22
2023-01-18T11:20:49.761Z,2.20
2023-01-18T11:23:25.876Z,1.88
2023-01-18T11:26:03.993Z,2.05
2023-01-18T11:28:37.492Z,2.10
2023-01-18T11:31:12.104Z,2.47
2023-01-18T11:33:49.584Z,1.88
2023-01-18T11:36:20.765Z,2.13
2023-01-18T11:38:49.376Z,2.13
2023-01-18T11:41:27.875Z,2.30
2023-01-18T11:44:05.938Z,2.08
2023-01-18T11:46:41.499Z,2.33
2023-01-18T11:49:25.781Z,2.55
2023-01-18T11:51:58.648Z,3.05
2023-01-18T11:54:32.013Z,3.15
2023-01-18T11:57:03.421Z,3.85
2023-01-18T11:59:34.686Z,5.32
2023-01-18T12:02:37.220Z,3.72
2023-01-18T12:05:28.424Z,3.45
2023-01-18T12:08:07.551Z,3.28
2023-01-18T12:10:43.427Z,3.97
2023-01-18T12:13:32.334Z,4.45
2023-01-18T12:16:16.350Z,3.45
2023-01-18T12:19:17.049Z,3.53
2023-01-18T12:22:04.929Z,2.85
2023-01-18T12:24:48.540Z,3.40
2023-01-18T12:27:28.430Z,2.88
2023-01-18T12:30:12.323Z,3.70
2023-01-18T12:33:06.620Z,3.78
2023-01-18T12:35:53.254Z,4.50
2023-01-18T12:38:26.437Z,3.95
2023-01-18T12:41:42.439Z,4.20
2023-01-18T12:44:49.888Z,4.35
2023-01-18T12:47:32.808Z,4.20
2023-01-18T12:50:03.852Z,3.15
2023-01-18T12:52:38.227Z,4.18
2023-01-18T12:55:08.652Z,3.42
2023-01-18T12:57:36.814Z,3.35
2023-01-18T13:00:09.554Z,3.60
2023-01-18T13:02:44.361Z,3.28
2023-01-18T13:05:19.661Z,3.30
2023-01-18T13:07:54.026Z,3.28
2023-01-18T13:10:27.551Z,3.78
2023-01-18T13:12:57.250Z,4.38
2023-01-18T13:15:35.082Z,4.50
2023-01-18T13:18:15.373Z,4.72
2023-01-18T13:20:54.848Z,3.97
2023-01-18T13:23:38.008Z,4.32
2023-01-18T13:26:22.337Z,2.92
2023-01-18T13:29:07.459Z,3.00
2023-01-18T13:31:35.548Z,3.88
2023-01-18T13:34:08.441Z,3.38
2023-01-18T13:36:45.937Z,3.58
2023-01-18T13:39:18.306Z,3.65
2023-01-18T13:42:10.060Z,3.60
2023-01-18T13:44:42.865Z,4.55
2023-01-18T13:47:50.173Z,4.32
2023-01-18T13:50:42.322Z,4.20
2023-01-18T13:53:39.420Z,4.07
2023-01-18T13:56:28.294Z,4.30
2023-01-18T13:58:59.765Z,4.70
2023-01-18T14:01:34.416Z,4.78
2023-01-18T14:04:24.274Z,4.88
2023-01-18T14:06:55.835Z,4.05
2023-01-18T14:09:37.803Z,3.75
2023-01-18T14:12:08.660Z,4.05
2023-01-18T14:14:53.043Z,3.75
2023-01-18T14:17:22.067Z,4.10
2023-01-18T14:20:42.744Z,3.58
2023-01-18T14:23:29.412Z,4.97
2023-01-18T14:26:01.788Z,4.50
2023-01-18T14:28:36.738Z,4.35
2023-01-18T14:31:09.197Z,3.92
2023-01-18T14:33:39.598Z,4.35
2023-01-18T14:36:08.532Z,4.20
2023-01-18T14:38:41.324Z,4.68
2023-01-18T14:41:13.332Z,4.65
2023-01-18T14:43:45.281Z,4.43
2023-01-18T14:46:20.238Z,4.90
2023-01-18T14:48:51.798Z,4.35
2023-01-18T14:51:23.400Z,4.88
2023-01-18T14:53:57.998Z,4.28
2023-01-18T14:56:27.684Z,5.20
2023-01-18T14:58:57.496Z,5.95
2023-01-18T15:01:31.854Z,5.45
2023-01-18T15:04:04.190Z,5.38
2023-01-18T15:06:38.426Z,6.00
2023-01-18T15:09:17.339Z,5.90
2023-01-18T15:11:47.000Z,5.78
2023-01-18T15:14:18.711Z,6.57
2023-01-18T15:16:49.157Z,5.35
2023-01-18T15:19:23.146Z,5.18
2023-01-18T15:21:51.834Z,5.10
2023-01-18T15:24:25.080Z,4.88
2023-01-18T15:26:54.602Z,5.30
2023-01-18T15:29:29.921Z,4.78
2023-01-18T15:32:00.110Z,4.63
2023-01-18T15:34:35.559Z,4.53
2023-01-18T15:37:06.545Z,5.20
2023-01-18T15:39:36.039Z,5.03
2023-01-18T15:42:07.521Z,4.78
2023-01-18T15:44:54.775Z,5.38
2023-01-18T15:47:24.984Z,4.88
2023-01-18T15:49:55.345Z,6.07
2023-01-18T15:52:44.914Z,6.43
2023-01-18T15:55:24.071Z,5.60
2023-01-18T15:58:00.277Z,5.78
2023-01-18T16:00:34.298Z,6.20
2023-01-18T16:03:04.399Z,6.30
2023-01-18T16:05:33.844Z,6.28
2023-01-18T16:08:22.686Z,6.90
2023-01-18T16:10:57.738Z,6.28
2023-01-18T16:13:38.480Z,8.05
2023-01-18T16:16:23.164Z,7.50
2023-01-18T16:19:05.253Z,7.07
2023-01-18T16:21:42.894Z,8.63
2023-01-18T16:24:49.880Z,8.80
2023-01-18T16:27:22.788Z,8.48
2023-01-18T16:29:52.838Z,9.77
2023-01-18T16:32:33.291Z,9.68
2023-01-18T16:35:05.459Z,8.38
2023-01-18T16:37:34.431Z,10.18
2023-01-18T16:40:05.291Z,10.32
2023-01-18T16:42:39.215Z,9.27
2023-01-18T16:45:14.784Z,12.07
2023-01-18T16:47:45.645Z,11.55
2023-01-18T16:50:16.048Z,13.13
2023-01-18T16:52:44.731Z,9.90
2023-01-18T16:55:14.085Z,9.95
2023-01-18T16:57:44.415Z,11.00
2023-01-18T17:00:18.236Z,9.70
2023-01-18T17:02:51.127Z,9.20
2023-01-18T17:05:19.540Z,9.48
2023-01-18T17:07:50.709Z,9.93
2023-01-18T17:10:25.571Z,10.88
2023-01-18T17:12:55.564Z,11.70
2023-01-18T17:15:24.127Z,11.52
2023-01-18T17:17:53.387Z,10.55
2023-01-18T17:20:23.353Z,7.95
2023-01-18T17:22:52.057Z,8.63
2023-01-18T17:25:20.589Z,7.53
2023-01-18T17:27:50.453Z,16.42
2023-01-18T17:30:22.799Z,17.85
2023-01-18T17:32:51.226Z,14.23
2023-01-18T17:35:23.249Z,13.95
2023-01-18T17:38:00.633Z,17.47
2023-01-18T17:40:41.687Z,11.50
2023-01-18T17:43:17.327Z,13.80
2023-01-18T17:46:00.682Z,12.95
2023-01-18T17:48:32.052Z,12.13
2023-01-18T17:51:03.036Z,12.32
2023-01-18T17:53:31.680Z,11.75
2023-01-18T17:55:59.585Z,12.13
2023-01-18T17:58:28.795Z,12.82
2023-01-18T18:01:05.631Z,12.18
2023-01-18T18:03:34.179Z,11.25
2023-01-18T18:06:02.734Z,10.23
2023-01-18T18:08:30.929Z,8.98
2023-01-18T18:11:03.289Z,7.55
2023-01-18T18:13:31.671Z,6.35
2023-01-18T18:16:00.936Z,9.98
2023-01-18T18:18:29.428Z,8.60
2023-01-18T18:20:58.609Z,7.07
2023-01-18T18:23:27.840Z,6.60
2023-01-18T18:25:56.391Z,7.30
2023-01-18T18:28:25.337Z,6.10
2023-01-18T18:30:53.825Z,5.93
2023-01-18T18:33:23.515Z,4.90
2023-01-18T18:35:53.444Z,5.50
2023-01-18T18:38:23.796Z,4.57
2023-01-18T18:40:52.109Z,3.92
2023-01-18T18:43:20.592Z,4.68
2023-01-18T18:45:48.864Z,4.72
2023-01-18T18:48:17.169Z,4.07
2023-01-18T18:50:48.314Z,5.90
2023-01-18T18:53:19.596Z,4.68
2023-01-18T18:55:51.054Z,5.38
2023-01-18T18:58:19.537Z,4.93
2023-01-18T19:00:47.823Z,4.55
2023-01-18T19:03:16.230Z,5.45
2023-01-18T19:05:44.897Z,5.60
2023-01-18T19:08:14.726Z,5.90
2023-01-18T19:10:44.898Z,6.78
2023-01-18T19:13:15.218Z,7.50
2023-01-18T19:15:46.595Z,7.95
2023-01-18T19:18:16.540Z,6.95
2023-01-18T19:20:47.070Z,6.38
2023-01-18T19:23:16.653Z,6.07
2023-01-18T19:25:48.035Z,5.75
2023-01-18T19:28:18.687Z,5.88
2023-01-18T19:30:47.211Z,10.77
2023-01-18T19:33:18.304Z,9.15
2023-01-18T19:35:48.025Z,9.00
2023-01-18T19:38:18.021Z,8.70
2023-01-18T19:40:48.917Z,9.48
2023-01-18T19:43:17.320Z,6.93
2023-01-18T19:45:46.802Z,7.60
2023-01-18T19:48:15.273Z,7.05
2023-01-18T19:50:46.418Z,6.80
2023-01-18T19:53:14.927Z,7.22
2023-01-18T19:55:48.116Z,6.22
2023-01-18T19:58:16.873Z,6.75
2023-01-18T20:00:45.512Z,7.25
2023-01-18T20:03:14.849Z,6.65
2023-01-18T20:05:45.092Z,6.72
2023-01-18T20:08:13.689Z,7.10
2023-01-18T20:10:42.562Z,6.63
2023-01-18T20:13:13.379Z,6.93
2023-01-18T20:15:45.253Z,6.95
2023-01-18T20:18:14.333Z,6.93
2023-01-18T20:20:42.667Z,6.13
2023-01-18T20:23:13.526Z,6.70
2023-01-18T20:25:45.353Z,6.97
2023-01-18T20:28:15.372Z,6.07
2023-01-18T20:30:49.161Z,6.60
2023-01-18T20:33:17.490Z,7.20
2023-01-18T20:35:47.042Z,6.90
2023-01-18T20:38:16.542Z,6.40
2023-01-18T20:40:45.262Z,6.10
2023-01-18T20:43:14.473Z,5.55
2023-01-18T20:45:42.713Z,5.40
2023-01-18T20:48:13.879Z,6.05
2023-01-18T20:50:42.524Z,6.95
2023-01-18T20:53:11.506Z,7.07
2023-01-18T20:55:40.066Z,8.77
2023-01-18T20:58:08.506Z,9.32
2023-01-18T21:00:38.095Z,8.38
2023-01-18T21:03:06.903Z,9.00
2023-01-18T21:05:39.801Z,9.02
2023-01-18T21:10:39.492Z,8.13
2023-01-18T21:13:08.375Z,7.55
2023-01-18T21:15:41.704Z,6.63
2023-01-18T21:18:09.996Z,6.72
2023-01-18T21:20:40.654Z,6.75
2023-01-18T21:23:09.626Z,6.65
2023-01-18T21:25:45.099Z,6.55
2023-01-18T21:28:14.229Z,6.63
2023-01-18T21:30:43.718Z,6.30
2023-01-18T21:33:12.394Z,6.50
2023-01-18T21:35:41.059Z,6.30
2023-01-18T21:38:09.458Z,6.20
2023-01-18T21:40:38.528Z,6.75
2023-01-18T21:43:24.399Z,7.55
2023-01-18T21:45:58.978Z,7.10
2023-01-18T21:48:30.297Z,7.43
2023-01-18T21:51:21.073Z,10.48
2023-01-18T21:54:07.256Z,9.93
2023-01-18T21:56:37.586Z,10.23
2023-01-18T21:59:07.670Z,9.55
2023-01-18T22:01:40.511Z,9.35
2023-01-18T22:06:57.684Z,9.07
2023-01-18T22:09:27.627Z,9.73
2023-01-18T22:11:57.575Z,8.52
2023-01-18T22:14:27.328Z,9.27
2023-01-18T22:16:57.819Z,8.77
2023-01-18T22:19:28.154Z,10.05
2023-01-18T22:21:58.721Z,10.95
2023-01-18T22:24:27.261Z,12.55
2023-01-18T22:26:56.981Z,13.90
2023-01-18T22:29:25.313Z,11.45
2023-01-18T22:31:56.043Z,10.63
2023-01-18T22:34:25.814Z,10.43
2023-01-18T22:36:54.702Z,10.88
2023-01-18T22:39:22.947Z,9.20
2023-01-18T22:41:51.513Z,9.23
2023-01-18T22:44:21.049Z,10.98
2023-01-18T22:46:49.544Z,10.82
2023-01-18T22:49:18.045Z,10.70
2023-01-18T22:51:49.463Z,11.13
2023-01-18T22:54:25.461Z,11.18
2023-01-18T22:56:53.874Z,11.68
2023-01-18T22:59:23.312Z,11.30
2023-01-18T23:01:51.534Z,10.10
2023-01-18T23:04:20.447Z,10.68
2023-01-18T23:06:50.831Z,12.13
2023-01-18T23:09:19.464Z,9.45
2023-01-18T23:11:49.224Z,9.90
2023-01-18T23:14:34.976Z,10.73
2023-01-18T23:17:20.970Z,10.15
2023-01-18T23:19:49.194Z,10.35
2023-01-18T23:22:19.311Z,10.40
2023-01-18T23:24:47.802Z,10.02
2023-01-18T23:27:18.205Z,10.23
2023-01-18T23:29:49.614Z,10.40
2023-01-18T23:32:18.385Z,9.65
2023-01-18T23:34:48.224Z,9.68
2023-01-18T23:37:16.687Z,9.07
2023-01-18T23:40:03.737Z,9.18
2023-01-18T23:42:49.676Z,7.95
2023-01-18T23:45:36.244Z,9.35
2023-01-18T23:48:26.010Z,8.38
2023-01-18T23:51:11.941Z,8.98
2023-01-18T23:53:58.895Z,9.65
2023-01-18T23:56:28.897Z,10.05
2023-01-18T23:58:59.161Z,9.80
